createdAt,value
2018-03-29T00:01:22.408Z,4.70
2018-03-29T00:03:56.983Z,4.80
2018-03-29T00:06:31.879Z,4.70
2018-03-29T00:09:06.786Z,4.80
2018-03-29T00:11:42.307Z,4.80
2018-03-29T00:14:17.752Z,4.90
2018-03-29T00:16:52.531Z,4.90
2018-03-29T00:19:27.232Z,4.90
2018-03-29T00:22:01.796Z,4.80
2018-03-29T00:24:36.455Z,4.80
2018-03-29T00:27:11.269Z,4.80
2018-03-29T00:29:46.226Z,4.80
2018-03-29T00:32:20.824Z,4.90
2018-03-29T00:34:55.379Z,4.80
2018-03-29T00:37:30.205Z,4.80
2018-03-29T00:40:04.450Z,4.80
2018-03-29T00:42:39.869Z,4.80
2018-03-29T00:45:14.496Z,4.80
2018-03-29T00:47:49.234Z,4.80
2018-03-29T00:50:24.901Z,4.80
2018-03-29T00:53:23.763Z,4.80
2018-03-29T00:55:58.405Z,4.80
2018-03-29T00:58:33.068Z,4.80
2018-03-29T01:01:08.384Z,4.80
2018-03-29T01:03:43.391Z,4.80
2018-03-29T01:06:18.074Z,4.80
2018-03-29T01:08:52.996Z,4.80
2018-03-29T01:11:27.634Z,4.80
2018-03-29T01:14:02.157Z,4.80
2018-03-29T01:16:36.767Z,4.90
2018-03-29T01:19:12.214Z,4.80
2018-03-29T01:21:46.496Z,4.80
2018-03-29T01:24:21.796Z,4.90
2018-03-29T01:26:56.528Z,4.90
2018-03-29T01:29:32.400Z,4.90
2018-03-29T01:32:07.892Z,4.90
2018-03-29T01:34:43.329Z,4.90
2018-03-29T01:37:18.177Z,4.90
2018-03-29T01:39:52.919Z,4.90
2018-03-29T01:42:27.718Z,4.90
2018-03-29T01:45:02.722Z,4.90
2018-03-29T01:47:37.557Z,4.90
2018-03-29T01:50:12.229Z,5.00
2018-03-29T01:52:46.733Z,4.90
2018-03-29T01:55:21.765Z,4.90
2018-03-29T01:57:56.520Z,4.90
2018-03-29T02:00:31.168Z,4.90
2018-03-29T02:03:06.869Z,5.00
2018-03-29T02:05:42.296Z,5.00
2018-03-29T02:08:17.205Z,5.00
2018-03-29T02:11:02.085Z,5.00
2018-03-29T02:13:36.683Z,5.00
2018-03-29T02:16:12.175Z,5.00
2018-03-29T02:18:46.805Z,5.00
2018-03-29T02:21:21.563Z,5.00
2018-03-29T02:23:56.135Z,5.00
2018-03-29T02:26:30.811Z,5.00
2018-03-29T02:29:06.254Z,5.10
2018-03-29T02:31:41.105Z,5.10
2018-03-29T02:34:16.482Z,5.10
2018-03-29T02:36:51.072Z,5.10
2018-03-29T02:39:26.005Z,5.00
2018-03-29T02:42:02.434Z,5.10
2018-03-29T02:44:37.053Z,5.10
2018-03-29T02:47:11.878Z,5.00
2018-03-29T02:49:46.544Z,5.10
2018-03-29T02:52:21.135Z,5.10
2018-03-29T02:54:55.722Z,5.00
2018-03-29T02:57:30.381Z,5.10
2018-03-29T03:00:04.364Z,5.10
2018-03-29T03:02:39.151Z,5.10
2018-03-29T03:05:13.746Z,5.10
2018-03-29T03:07:49.945Z,5.20
2018-03-29T03:10:25.215Z,5.10
2018-03-29T03:12:59.871Z,5.00
2018-03-29T03:15:34.443Z,5.00
2018-03-29T03:18:09.128Z,5.00
2018-03-29T03:20:43.847Z,5.10
2018-03-29T03:23:18.763Z,5.10
2018-03-29T03:25:53.539Z,5.00
2018-03-29T03:28:28.112Z,5.00
2018-03-29T03:31:02.920Z,4.90
2018-03-29T03:33:37.676Z,4.90
2018-03-29T03:36:12.357Z,5.00
2018-03-29T03:38:47.839Z,5.00
2018-03-29T03:41:22.610Z,5.10
2018-03-29T03:43:57.457Z,5.10
2018-03-29T03:46:32.040Z,5.10
2018-03-29T03:49:06.833Z,5.10
2018-03-29T03:51:41.569Z,5.10
2018-03-29T03:54:16.418Z,5.10
2018-03-29T03:56:51.115Z,5.10
2018-03-29T03:59:25.923Z,5.10
2018-03-29T04:02:00.669Z,5.10
2018-03-29T04:04:35.225Z,5.10
2018-03-29T04:07:09.761Z,5.10
2018-03-29T04:09:44.464Z,5.00
2018-03-29T04:12:19.162Z,5.10
2018-03-29T04:14:54.028Z,5.20
2018-03-29T04:17:28.818Z,5.20
2018-03-29T04:20:04.361Z,5.20
2018-03-29T04:22:39.012Z,5.20
2018-03-29T04:25:13.773Z,5.20
2018-03-29T04:27:48.335Z,5.30
2018-03-29T04:30:22.976Z,5.30
2018-03-29T04:32:57.729Z,5.30
2018-03-29T04:35:32.617Z,5.30
2018-03-29T04:38:08.183Z,5.40
2018-03-29T04:40:42.863Z,5.40
2018-03-29T04:43:17.442Z,5.50
2018-03-29T04:45:52.795Z,5.50
2018-03-29T04:48:27.501Z,5.50
2018-03-29T04:51:02.042Z,5.50
2018-03-29T04:53:36.641Z,5.60
2018-03-29T04:56:11.422Z,5.60
2018-03-29T04:58:46.235Z,5.60
2018-03-29T05:01:21.510Z,5.60
2018-03-29T05:03:56.311Z,5.60
2018-03-29T05:06:30.872Z,5.60
2018-03-29T05:09:04.841Z,5.60
2018-03-29T05:11:39.707Z,5.60
2018-03-29T05:14:14.397Z,5.60
2018-03-29T05:16:51.074Z,5.60
2018-03-29T05:19:26.624Z,5.70
2018-03-29T05:22:01.903Z,5.70
2018-03-29T05:24:36.656Z,5.70
2018-03-29T05:27:16.678Z,5.70
2018-03-29T05:29:51.944Z,5.80
2018-03-29T05:32:26.592Z,5.80
2018-03-29T05:35:01.356Z,5.80
2018-03-29T05:37:36.151Z,5.80
2018-03-29T05:40:10.736Z,5.80
2018-03-29T05:42:45.604Z,5.90
2018-03-29T05:45:21.191Z,5.90
2018-03-29T05:47:55.912Z,5.80
2018-03-29T05:50:30.615Z,5.90
2018-03-29T05:53:04.954Z,5.90
2018-03-29T05:55:39.754Z,6.00
2018-03-29T05:58:14.333Z,6.00
2018-03-29T06:00:49.347Z,6.10
2018-03-29T06:03:23.963Z,6.10
2018-03-29T06:05:59.035Z,6.20
2018-03-29T06:08:34.310Z,6.20
2018-03-29T06:11:09.928Z,6.10
2018-03-29T06:13:45.408Z,6.10
2018-03-29T06:16:19.780Z,5.90
2018-03-29T06:18:59.003Z,5.90
2018-03-29T06:21:33.642Z,5.90
2018-03-29T06:24:08.997Z,5.80
2018-03-29T06:26:43.736Z,5.80
2018-03-29T06:29:18.529Z,5.70
2018-03-29T06:31:53.134Z,5.60
2018-03-29T06:34:27.885Z,5.50
2018-03-29T06:37:02.539Z,5.40
2018-03-29T06:39:37.931Z,5.20
2018-03-29T06:42:12.715Z,5.20
2018-03-29T06:44:47.384Z,5.30
2018-03-29T06:47:22.087Z,5.20
2018-03-29T06:49:56.802Z,5.30
2018-03-29T06:52:31.506Z,5.30
2018-03-29T06:55:06.137Z,5.40
2018-03-29T06:57:40.981Z,5.40
2018-03-29T07:00:15.572Z,5.40
2018-03-29T07:02:50.338Z,5.40
2018-03-29T07:05:24.951Z,5.40
2018-03-29T07:07:59.727Z,5.40
2018-03-29T07:10:34.333Z,5.40
2018-03-29T07:13:08.915Z,5.50
2018-03-29T07:15:44.357Z,5.50
2018-03-29T07:18:18.845Z,5.50
2018-03-29T07:20:53.491Z,5.60
2018-03-29T07:23:28.318Z,5.60
2018-03-29T07:26:03.191Z,5.60
2018-03-29T07:28:38.197Z,5.80
2018-03-29T07:31:12.487Z,5.80
2018-03-29T07:33:47.353Z,5.80
2018-03-29T07:36:22.157Z,5.80
2018-03-29T07:38:57.049Z,5.90
2018-03-29T07:41:31.687Z,5.80
2018-03-29T07:44:06.340Z,5.80
2018-03-29T07:46:40.995Z,5.70
2018-03-29T07:49:16.433Z,5.90
2018-03-29T07:51:51.106Z,5.90
2018-03-29T07:54:25.828Z,6.00
2018-03-29T07:57:00.674Z,6.10
2018-03-29T07:59:35.637Z,6.10
2018-03-29T08:02:10.575Z,6.20
2018-03-29T08:04:45.513Z,6.20
2018-03-29T08:07:21.035Z,6.40
2018-03-29T08:09:56.053Z,6.30
2018-03-29T08:12:30.724Z,6.40
2018-03-29T08:15:05.457Z,6.50
2018-03-29T08:17:40.794Z,6.50
2018-03-29T08:20:15.512Z,6.50
2018-03-29T08:22:50.393Z,6.50
2018-03-29T08:25:26.001Z,6.40
2018-03-29T08:28:00.613Z,6.40
2018-03-29T08:30:35.287Z,6.40
2018-03-29T08:33:10.115Z,6.50
2018-03-29T08:35:44.968Z,6.50
2018-03-29T08:38:19.511Z,6.40
2018-03-29T08:40:54.121Z,6.60
2018-03-29T08:43:28.868Z,6.70
2018-03-29T08:46:03.616Z,6.90
2018-03-29T08:48:38.576Z,6.80
2018-03-29T08:51:14.024Z,7.00
2018-03-29T08:53:48.915Z,7.10
2018-03-29T08:56:24.122Z,7.10
2018-03-29T08:58:58.691Z,7.30
2018-03-29T09:01:33.499Z,7.20
2018-03-29T09:04:08.422Z,7.30
2018-03-29T09:06:44.701Z,7.30
2018-03-29T09:09:19.440Z,7.30
2018-03-29T09:11:55.250Z,7.20
2018-03-29T09:14:29.882Z,7.20
2018-03-29T09:17:05.219Z,7.30
2018-03-29T09:19:39.873Z,7.50
2018-03-29T09:22:15.344Z,7.60
2018-03-29T09:24:50.348Z,7.60
2018-03-29T09:27:25.798Z,7.70
2018-03-29T09:30:00.600Z,7.80
2018-03-29T09:32:35.123Z,7.80
2018-03-29T09:35:10.294Z,7.90
2018-03-29T09:37:45.120Z,8.00
2018-03-29T09:40:20.464Z,7.90
2018-03-29T09:42:55.259Z,8.00
2018-03-29T09:45:30.014Z,7.90
2018-03-29T09:48:07.330Z,7.90
2018-03-29T09:50:42.046Z,7.90
2018-03-29T09:53:16.965Z,8.10
2018-03-29T09:55:52.185Z,8.40
2018-03-29T09:58:27.148Z,8.40
2018-03-29T10:01:10.808Z,8.40
2018-03-29T10:03:50.858Z,8.20
2018-03-29T10:06:27.407Z,8.30
2018-03-29T10:09:02.140Z,8.40
2018-03-29T10:11:36.905Z,8.40
2018-03-29T10:14:11.692Z,8.30
2018-03-29T10:16:46.403Z,8.30
2018-03-29T10:19:21.011Z,8.20
2018-03-29T10:21:55.740Z,8.20
2018-03-29T10:24:30.516Z,8.20
2018-03-29T10:27:05.200Z,8.20
2018-03-29T10:29:39.862Z,8.30
2018-03-29T10:32:15.257Z,8.30
2018-03-29T10:34:49.926Z,8.30
2018-03-29T10:37:24.663Z,8.40
2018-03-29T10:39:59.741Z,8.20
2018-03-29T10:42:34.453Z,8.30
2018-03-29T10:45:09.359Z,8.50
2018-03-29T10:47:44.060Z,8.70
2018-03-29T10:50:18.664Z,8.90
2018-03-29T10:52:53.392Z,8.90
2018-03-29T10:55:28.359Z,8.80
2018-03-29T10:58:03.086Z,8.80
2018-03-29T11:00:37.814Z,8.70
2018-03-29T11:03:13.300Z,8.70
2018-03-29T11:05:48.031Z,9.10
2018-03-29T11:08:23.459Z,9.30
2018-03-29T11:10:58.985Z,9.30
2018-03-29T11:13:33.846Z,9.10
2018-03-29T11:16:08.783Z,9.10
2018-03-29T11:18:43.457Z,8.80
2018-03-29T11:21:19.615Z,8.60
2018-03-29T11:23:54.472Z,8.60
2018-03-29T11:26:29.127Z,7.70
2018-03-29T11:29:03.968Z,7.30
2018-03-29T11:31:38.486Z,7.10
2018-03-29T11:34:13.093Z,7.10
2018-03-29T11:36:47.749Z,7.40
2018-03-29T11:39:22.562Z,7.50
2018-03-29T11:41:57.979Z,7.70
2018-03-29T11:44:33.621Z,8.10
2018-03-29T11:47:08.591Z,8.00
2018-03-29T11:49:44.043Z,8.20
2018-03-29T11:52:19.584Z,8.20
2018-03-29T11:54:54.640Z,8.20
2018-03-29T11:57:29.353Z,8.30
2018-03-29T12:00:04.010Z,8.10
2018-03-29T12:02:38.875Z,7.90
2018-03-29T12:05:13.631Z,7.90
2018-03-29T12:07:49.193Z,6.90
2018-03-29T12:10:24.526Z,6.30
2018-03-29T12:13:00.075Z,6.20
2018-03-29T12:15:34.834Z,6.10
2018-03-29T12:18:10.504Z,6.40
2018-03-29T12:20:45.129Z,6.40
2018-03-29T12:23:19.772Z,6.60
2018-03-29T12:25:54.871Z,6.90
2018-03-29T12:28:29.597Z,7.20
2018-03-29T12:31:04.272Z,7.30
2018-03-29T12:33:39.064Z,7.50
2018-03-29T12:36:13.842Z,7.60
2018-03-29T12:38:48.469Z,7.70
2018-03-29T12:41:23.371Z,8.00
2018-03-29T12:43:58.101Z,8.20
2018-03-29T12:46:32.902Z,8.30
2018-03-29T12:49:07.860Z,8.40
2018-03-29T12:51:42.642Z,8.50
2018-03-29T12:54:17.299Z,8.70
2018-03-29T12:57:04.559Z,8.90
2018-03-29T12:59:39.296Z,8.90
2018-03-29T13:02:13.978Z,8.90
2018-03-29T13:04:48.806Z,9.10
2018-03-29T13:07:24.255Z,9.30
2018-03-29T13:09:59.145Z,9.30
2018-03-29T13:12:33.903Z,9.20
2018-03-29T13:15:09.141Z,9.40
2018-03-29T13:17:43.771Z,9.40
2018-03-29T13:20:18.562Z,9.50
2018-03-29T13:22:53.296Z,9.80
2018-03-29T13:25:29.118Z,10.00
2018-03-29T13:28:04.285Z,10.10
2018-03-29T13:30:38.608Z,10.00
2018-03-29T13:33:13.161Z,10.10
2018-03-29T13:35:47.762Z,10.20
2018-03-29T13:38:22.442Z,10.40
2018-03-29T13:40:57.101Z,10.50
2018-03-29T13:43:32.491Z,10.90
2018-03-29T13:46:08.165Z,10.90
2018-03-29T13:48:42.712Z,10.90
2018-03-29T13:51:17.327Z,11.00
2018-03-29T13:53:52.060Z,11.20
2018-03-29T13:56:27.876Z,10.60
2018-03-29T13:59:02.635Z,10.60
2018-03-29T14:01:38.298Z,10.90
2018-03-29T14:04:12.880Z,11.00
2018-03-29T14:06:47.486Z,11.10
2018-03-29T14:09:22.273Z,11.00
2018-03-29T14:11:56.915Z,11.00
2018-03-29T14:14:31.581Z,11.10
2018-03-29T14:17:06.362Z,11.10
2018-03-29T14:19:41.736Z,11.20
2018-03-29T14:22:17.495Z,10.80
2018-03-29T14:24:52.123Z,10.80
2018-03-29T14:27:26.744Z,10.40
2018-03-29T14:30:01.359Z,10.10
2018-03-29T14:32:36.246Z,9.60
2018-03-29T14:35:10.822Z,9.30
2018-03-29T14:37:45.715Z,9.60
2018-03-29T14:40:20.591Z,9.90
2018-03-29T14:42:55.226Z,10.10
2018-03-29T14:45:29.746Z,10.30
2018-03-29T14:48:04.540Z,10.40
2018-03-29T14:50:39.057Z,10.50
2018-03-29T14:53:13.692Z,10.40
2018-03-29T14:55:48.312Z,10.30
2018-03-29T14:58:23.145Z,10.20
2018-03-29T15:00:57.707Z,10.20
2018-03-29T15:03:32.276Z,10.10
2018-03-29T15:06:07.077Z,9.90
2018-03-29T15:08:42.126Z,9.90
2018-03-29T15:11:16.809Z,9.90
2018-03-29T15:13:52.287Z,10.20
2018-03-29T15:16:27.116Z,10.20
2018-03-29T15:19:01.766Z,10.60
2018-03-29T15:21:36.572Z,11.00
2018-03-29T15:24:11.391Z,11.10
2018-03-29T15:26:46.761Z,11.30
2018-03-29T15:29:21.423Z,11.30
2018-03-29T15:31:56.047Z,11.40
2018-03-29T15:34:30.976Z,11.50
2018-03-29T15:37:06.415Z,11.50
2018-03-29T15:39:41.761Z,11.70
2018-03-29T15:42:17.061Z,11.70
2018-03-29T15:44:51.663Z,11.80
2018-03-29T15:47:26.555Z,12.00
2018-03-29T15:50:01.115Z,11.90
2018-03-29T15:52:36.782Z,11.80
2018-03-29T15:55:12.494Z,11.70
2018-03-29T15:57:47.105Z,11.60
2018-03-29T16:00:21.721Z,11.60
2018-03-29T16:02:57.399Z,12.20
2018-03-29T16:05:32.014Z,12.20
2018-03-29T16:08:07.523Z,12.50
2018-03-29T16:10:42.134Z,12.50
2018-03-29T16:13:16.822Z,12.50
2018-03-29T16:15:51.799Z,12.50
2018-03-29T16:18:26.595Z,12.50
2018-03-29T16:21:01.707Z,12.50
2018-03-29T16:23:38.230Z,12.70
2018-03-29T16:26:13.034Z,12.70
2018-03-29T16:28:48.423Z,12.50
2018-03-29T16:31:23.170Z,12.50
2018-03-29T16:33:57.840Z,12.40
2018-03-29T16:36:33.069Z,12.30
2018-03-29T16:39:07.607Z,12.40
2018-03-29T16:41:42.273Z,12.50
2018-03-29T16:44:17.725Z,12.50
2018-03-29T16:46:52.478Z,12.50
2018-03-29T16:49:26.850Z,12.40
2018-03-29T16:52:01.519Z,12.30
2018-03-29T16:54:36.274Z,12.40
2018-03-29T16:57:11.062Z,12.30
2018-03-29T16:59:45.844Z,12.20
2018-03-29T17:02:20.480Z,12.20
2018-03-29T17:04:55.154Z,12.10
2018-03-29T17:07:30.637Z,11.80
2018-03-29T17:10:05.025Z,11.70
2018-03-29T17:12:40.499Z,11.30
2018-03-29T17:15:15.294Z,11.30
2018-03-29T17:17:49.964Z,11.10
2018-03-29T17:20:24.803Z,11.00
2018-03-29T17:22:59.540Z,10.90
2018-03-29T17:25:33.896Z,10.90
2018-03-29T17:28:08.717Z,10.80
2018-03-29T17:30:43.897Z,10.90
2018-03-29T17:33:19.204Z,11.00
2018-03-29T17:35:54.137Z,10.90
2018-03-29T17:38:29.483Z,10.70
2018-03-29T17:41:04.457Z,10.60
2018-03-29T17:43:39.004Z,10.40
2018-03-29T17:46:13.539Z,10.40
2018-03-29T17:48:48.137Z,10.20
2018-03-29T17:51:22.932Z,10.10
2018-03-29T17:53:57.483Z,10.10
2018-03-29T17:56:32.217Z,10.10
2018-03-29T17:59:07.720Z,10.00
2018-03-29T18:01:42.489Z,10.00
2018-03-29T18:04:18.044Z,9.80
2018-03-29T18:06:52.783Z,9.80
2018-03-29T18:09:27.341Z,9.70
2018-03-29T18:12:02.895Z,9.50
2018-03-29T18:14:38.204Z,9.50
2018-03-29T18:17:14.989Z,9.40
2018-03-29T18:19:50.585Z,9.30
2018-03-29T18:22:25.209Z,9.20
2018-03-29T18:24:59.938Z,9.20
2018-03-29T18:27:34.428Z,9.10
2018-03-29T18:30:09.416Z,9.10
2018-03-29T18:32:44.173Z,9.00
2018-03-29T18:35:18.936Z,9.00
2018-03-29T18:37:54.402Z,8.80
2018-03-29T18:40:29.042Z,8.70
2018-03-29T18:43:03.579Z,8.70
2018-03-29T18:45:38.463Z,8.60
2018-03-29T18:48:13.916Z,8.50
2018-03-29T18:50:48.707Z,8.50
2018-03-29T18:53:23.810Z,8.50
2018-03-29T18:55:58.605Z,8.50
2018-03-29T18:58:33.542Z,8.50
2018-03-29T19:01:08.317Z,8.50
2018-03-29T19:03:43.273Z,8.40
2018-03-29T19:06:13.247Z,8.40
2018-03-29T19:08:42.228Z,8.30
2018-03-29T19:11:11.741Z,8.40
2018-03-29T19:13:41.466Z,8.30
2018-03-29T19:16:10.534Z,8.30
2018-03-29T19:18:39.696Z,8.20
2018-03-29T19:21:08.907Z,8.20
2018-03-29T19:23:38.824Z,8.20
2018-03-29T19:26:08.088Z,8.20
2018-03-29T19:28:38.132Z,8.10
2018-03-29T19:31:07.297Z,8.10
2018-03-29T19:33:36.290Z,8.10
2018-03-29T19:36:05.285Z,8.10
2018-03-29T19:38:34.196Z,8.10
2018-03-29T19:41:03.273Z,8.10
2018-03-29T19:43:33.283Z,8.00
2018-03-29T19:46:07.966Z,8.00
2018-03-29T19:48:42.656Z,8.10
2018-03-29T19:51:17.625Z,8.20
2018-03-29T19:53:52.927Z,8.20
2018-03-29T19:56:21.857Z,8.20
2018-03-29T19:58:51.747Z,8.30
2018-03-29T20:01:20.771Z,8.30
2018-03-29T20:03:49.582Z,8.40
2018-03-29T20:06:19.602Z,8.30
2018-03-29T20:08:48.572Z,8.30
2018-03-29T20:11:17.445Z,8.30
2018-03-29T20:13:48.200Z,8.30
2018-03-29T20:16:18.043Z,8.30
2018-03-29T20:18:47.334Z,8.30
2018-03-29T20:21:17.763Z,8.30
2018-03-29T20:23:46.706Z,8.30
2018-03-29T20:26:16.399Z,8.10
2018-03-29T20:28:45.424Z,8.10
2018-03-29T20:31:14.520Z,8.10
2018-03-29T20:33:43.542Z,8.00
2018-03-29T20:36:12.491Z,8.00
2018-03-29T20:38:41.782Z,8.00
2018-03-29T20:41:10.922Z,7.90
2018-03-29T20:43:41.067Z,7.90
2018-03-29T20:46:10.294Z,7.90
2018-03-29T20:48:44.982Z,7.90
2018-03-29T20:51:21.133Z,7.90
2018-03-29T20:53:55.676Z,7.90
2018-03-29T20:56:31.049Z,7.90
2018-03-29T20:59:05.676Z,8.00
2018-03-29T21:01:40.392Z,8.00
2018-03-29T21:04:10.479Z,8.00
2018-03-29T21:06:45.119Z,8.00
2018-03-29T21:09:20.553Z,8.00
2018-03-29T21:11:55.212Z,8.00
2018-03-29T21:14:29.809Z,8.00
2018-03-29T21:17:04.527Z,8.10
2018-03-29T21:19:39.177Z,8.00
2018-03-29T21:22:13.837Z,8.00
2018-03-29T21:24:49.061Z,8.00
2018-03-29T21:27:24.592Z,7.90
2018-03-29T21:29:59.331Z,7.90
2018-03-29T21:32:33.878Z,7.90
2018-03-29T21:35:08.473Z,7.90
2018-03-29T21:37:44.131Z,7.80
2018-03-29T21:40:18.937Z,7.80
2018-03-29T21:42:53.797Z,7.70
2018-03-29T21:45:28.487Z,7.60
2018-03-29T21:48:03.973Z,7.60
2018-03-29T21:50:38.779Z,7.50
2018-03-29T21:53:07.919Z,7.50
2018-03-29T21:55:42.602Z,7.50
2018-03-29T21:58:17.370Z,7.50
2018-03-29T22:00:52.024Z,7.40
2018-03-29T22:03:26.682Z,7.50
2018-03-29T22:06:01.357Z,7.40
2018-03-29T22:08:35.917Z,7.40
2018-03-29T22:11:10.799Z,7.40
2018-03-29T22:13:50.729Z,7.40
2018-03-29T22:16:25.441Z,7.40
2018-03-29T22:19:00.342Z,7.30
2018-03-29T22:21:35.061Z,7.30
2018-03-29T22:24:09.661Z,7.40
2018-03-29T22:26:44.686Z,7.30
2018-03-29T22:29:20.190Z,7.30
2018-03-29T22:31:54.761Z,7.30
2018-03-29T22:34:29.504Z,7.20
2018-03-29T22:37:04.187Z,7.20
2018-03-29T22:39:39.593Z,7.20
2018-03-29T22:42:15.279Z,7.20
2018-03-29T22:44:49.893Z,7.20
2018-03-29T22:47:19.019Z,7.20
2018-03-29T22:49:53.746Z,7.20
2018-03-29T22:52:29.245Z,7.20
2018-03-29T22:55:04.181Z,7.20
2018-03-29T22:57:38.914Z,7.20
2018-03-29T23:00:13.820Z,7.10
2018-03-29T23:02:48.567Z,7.10
2018-03-29T23:05:23.186Z,7.10
2018-03-29T23:07:57.837Z,7.10
2018-03-29T23:10:32.401Z,7.00
2018-03-29T23:13:07.016Z,7.00
2018-03-29T23:15:41.841Z,7.00
2018-03-29T23:18:17.600Z,7.00
2018-03-29T23:20:51.788Z,7.00
2018-03-29T23:23:26.248Z,7.00
2018-03-29T23:26:01.122Z,7.00
2018-03-29T23:28:35.966Z,7.00
2018-03-29T23:31:10.717Z,7.00
2018-03-29T23:33:46.102Z,7.00
2018-03-29T23:36:20.873Z,7.00
2018-03-29T23:38:55.594Z,7.00
2018-03-29T23:41:30.464Z,7.00
2018-03-29T23:44:04.798Z,7.00
2018-03-29T23:46:39.470Z,7.00
2018-03-29T23:49:14.416Z,7.10
2018-03-29T23:51:49.832Z,7.00
2018-03-29T23:54:24.696Z,7.10
2018-03-29T23:57:00.860Z,7.10
2018-03-29T23:59:35.411Z,7.10
